KSANKTSP

Guest
Details From KSAN - San Diego Intl
To KTSP - TEHACHAPI MUNI
Flight Number -
Tags generated
Created
Modified
Stats Distance 157 nm / 291 km
Max Altitude 14,800 ft / 4,511 m
Waypoints 3
Social Downloads 0
Likes 0
Share VATSIM

Download

Looking for another format? Having issues loading an existing format? Contact us
Advertisement - Login to hide

Notes

Basic altitude profile: - Ascent Rate: 2500ft/min - Ascent Speed: 250kts - Cruise Altitude: 35000ft - Cruise Speed: 420kts - Descent Rate: 1500ft/min - Descent Speed: 250kts Options: - Use NATs: yes - Use PACOTS: yes - Use low airways: yes - Use high airways: yes

Route

KSAN COVIN KTSP

ID Type Via Altitude Latitude Longitude Leg Dist Tot Dist Heading (true) Name
O KSAN APT - 0 ft / 0 m 32.73356˚ -117.18966˚ - 0 nm - San Diego Intl
COVIN FIX - 14,800 ft / 4,511 m 34.07685˚ -117.89017˚ 87 nm 87 nm 337° / 336° -
O KTSP APT - 0 ft / 0 m 35.13500˚ -118.43922˚ 69 nm 157 nm 337° / 337° TEHACHAPI MUNI

Altitude Profile

Advertisement - Login to hide

KSAN

Details ICAO KSAN (SAN)
Name San Diego Intl
Region United States
Timezone America/Los_Angeles (UTC-7.0)
Stats Elevation 17 ft / 5 m (AMSL)
Location 32.733556° -117.189658°
Runways 1
Magnetic Variation 11.475° E

METAR

KSAN 160351Z 19006KT 10SM BKN012 21/17 A2997 RMK AO2 SLP149 T02060167

Decode

TAF

TAF AMD KSAN 160300Z 1603/1706 18006KT P6SM FEW015 SCT050 BKN250 TEMPO 1603/1606 BKN013 FM160600 19006KT P6SM OVC011 FM161600 VRB04KT P6SM SCT012 SCT200 FM161900 28009KT P6SM SCT200 FM170300 29006KT P6SM SCT015

Decode

Departure Runways

ID Width Length Bearing (true) Bearing (mag) Surface Threshold Offset Overrun Length
09 200 ft / 61 m 9,387 ft / 2,861 m 106.07° 94.60° Asphalt 699 ft / 213 m 269 ft / 82 m
27 200 ft / 61 m 9,387 ft / 2,861 m 286.08° 274.61° Asphalt 1,811 ft / 552 m 0 ft / 0 m

KTSP

Details ICAO KTSP
Name TEHACHAPI MUNI
Region United States
Timezone America/Los_Angeles (UTC-7.0)
Stats Elevation 4,001 ft / 1,220 m (AMSL)
Location 35.134999° -118.439218°
Runways 1
Magnetic Variation 12.192° E

METAR

KTSP 160435Z AUTO 27010KT 10SM CLR 25/11 A3012 RMK AO2

Decode

TAF

Not found

Destination Runways

ID Width Length Bearing (true) Bearing (mag) Surface Threshold Offset Overrun Length
11 85 ft / 26 m 4,027 ft / 1,227 m 124.75° 112.56° Asphalt 305 ft / 93 m 0 ft / 0 m
29 85 ft / 26 m 4,027 ft / 1,227 m 304.75° 292.56° Asphalt 384 ft / 117 m 0 ft / 0 m

Popular Alternatives